sensor_id;sensor_type;location;lat;lon;timestamp;pressure;altitude;pressure_sealevel;temperature;humidity
47366;BME280;33105;47.964;7.982;2023-02-18T00:01:25;97850.75;;;10.21;78.00
47366;BME280;33105;47.964;7.982;2023-02-18T00:04:27;97861.59;;;10.28;77.80
47366;BME280;33105;47.964;7.982;2023-02-18T00:07:33;97863.34;;;10.22;78.02
47366;BME280;33105;47.964;7.982;2023-02-18T00:10:35;97867.97;;;10.21;78.29
47366;BME280;33105;47.964;7.982;2023-02-18T00:13:36;97870.28;;;10.18;78.31
47366;BME280;33105;47.964;7.982;2023-02-18T00:16:38;97867.13;;;10.21;78.23
47366;BME280;33105;47.964;7.982;2023-02-18T00:19:39;97866.84;;;10.11;79.44
47366;BME280;33105;47.964;7.982;2023-02-18T00:22:40;97857.78;;;10.29;78.06
47366;BME280;33105;47.964;7.982;2023-02-18T00:25:41;97858.72;;;10.22;78.12
47366;BME280;33105;47.964;7.982;2023-02-18T00:28:43;97855.56;;;10.37;78.29
47366;BME280;33105;47.964;7.982;2023-02-18T00:31:44;97851.41;;;10.35;77.92
47366;BME280;33105;47.964;7.982;2023-02-18T00:34:45;97857.31;;;10.32;78.33
47366;BME280;33105;47.964;7.982;2023-02-18T00:37:50;97855.78;;;10.36;78.63
47366;BME280;33105;47.964;7.982;2023-02-18T00:40:51;97847.41;;;10.19;79.25
47366;BME280;33105;47.964;7.982;2023-02-18T00:43:53;97840.56;;;10.28;79.47
47366;BME280;33105;47.964;7.982;2023-02-18T00:46:54;97831.22;;;10.36;79.29
47366;BME280;33105;47.964;7.982;2023-02-18T00:49:55;97828.47;;;10.36;79.58
47366;BME280;33105;47.964;7.982;2023-02-18T00:52:56;97834.63;;;10.31;78.88
47366;BME280;33105;47.964;7.982;2023-02-18T00:55:58;97825.59;;;10.31;78.98
47366;BME280;33105;47.964;7.982;2023-02-18T00:59:00;97829.13;;;10.19;79.53
47366;BME280;33105;47.964;7.982;2023-02-18T01:02:01;97821.69;;;10.27;79.28
47366;BME280;33105;47.964;7.982;2023-02-18T01:05:02;97817.88;;;10.28;79.58
47366;BME280;33105;47.964;7.982;2023-02-18T01:08:04;97814.81;;;10.36;79.38
47366;BME280;33105;47.964;7.982;2023-02-18T01:11:07;97810.34;;;10.11;79.35
47366;BME280;33105;47.964;7.982;2023-02-18T01:14:09;97808.53;;;10.35;79.45
47366;BME280;33105;47.964;7.982;2023-02-18T01:17:10;97805.06;;;10.40;79.47
47366;BME280;33105;47.964;7.982;2023-02-18T01:20:14;97806.03;;;10.34;80.43
47366;BME280;33105;47.964;7.982;2023-02-18T01:23:15;97812.41;;;10.28;79.79
47366;BME280;33105;47.964;7.982;2023-02-18T01:26:17;97808.63;;;10.29;79.49
47366;BME280;33105;47.964;7.982;2023-02-18T01:29:18;97804.69;;;10.25;80.38
47366;BME280;33105;47.964;7.982;2023-02-18T01:32:19;97802.00;;;10.06;80.37
47366;BME280;33105;47.964;7.982;2023-02-18T01:35:20;97800.34;;;10.05;80.46
47366;BME280;33105;47.964;7.982;2023-02-18T01:38:22;97796.91;;;10.10;80.49
47366;BME280;33105;47.964;7.982;2023-02-18T01:41:23;97801.59;;;9.91;81.19
47366;BME280;33105;47.964;7.982;2023-02-18T01:44:27;97805.94;;;10.10;80.80
47366;BME280;33105;47.964;7.982;2023-02-18T01:47:28;97801.69;;;10.14;80.11
47366;BME280;33105;47.964;7.982;2023-02-18T01:50:31;97795.03;;;10.10;80.36
47366;BME280;33105;47.964;7.982;2023-02-18T02:00:00;97788.78;;;10.21;79.94
47366;BME280;33105;47.964;7.982;2023-02-18T02:03:05;97789.88;;;10.32;79.94
47366;BME280;33105;47.964;7.982;2023-02-18T02:06:15;97776.69;;;10.29;79.30
47366;BME280;33105;47.964;7.982;2023-02-18T02:09:18;97784.22;;;10.15;79.11
47366;BME280;33105;47.964;7.982;2023-02-18T02:15:56;97777.03;;;10.33;78.81
47366;BME280;33105;47.964;7.982;2023-02-18T02:33:47;97767.78;;;10.45;77.78
47366;BME280;33105;47.964;7.982;2023-02-18T02:43:43;97776.13;;;10.39;78.36
47366;BME280;33105;47.964;7.982;2023-02-18T02:46:50;97769.00;;;10.61;77.34
47366;BME280;33105;47.964;7.982;2023-02-18T02:50:03;97769.22;;;10.71;76.74
47366;BME280;33105;47.964;7.982;2023-02-18T02:53:13;97763.53;;;10.61;77.23
47366;BME280;33105;47.964;7.982;2023-02-18T02:56:24;97766.84;;;10.51;77.87
47366;BME280;33105;47.964;7.982;2023-02-18T02:59:27;97772.66;;;10.78;77.09
47366;BME280;33105;47.964;7.982;2023-02-18T03:09:30;97766.34;;;10.43;78.47
47366;BME280;33105;47.964;7.982;2023-02-18T03:13:03;97757.81;;;10.39;77.90
47366;BME280;33105;47.964;7.982;2023-02-18T03:16:36;97755.91;;;10.28;78.36
47366;BME280;33105;47.964;7.982;2023-02-18T03:19:53;97742.72;;;10.48;76.26
47366;BME280;33105;47.964;7.982;2023-02-18T03:22:57;97744.75;;;10.30;77.45
47366;BME280;33105;47.964;7.982;2023-02-18T03:26:01;97741.19;;;10.52;77.83
47366;BME280;33105;47.964;7.982;2023-02-18T03:29:06;97741.06;;;10.36;77.50
47366;BME280;33105;47.964;7.982;2023-02-18T03:32:11;97744.28;;;10.33;78.34
47366;BME280;33105;47.964;7.982;2023-02-18T03:35:16;97738.53;;;10.22;78.38
47366;BME280;33105;47.964;7.982;2023-02-18T03:38:23;97728.00;;;10.49;76.37
47366;BME280;33105;47.964;7.982;2023-02-18T03:41:26;97723.00;;;10.58;75.91
47366;BME280;33105;47.964;7.982;2023-02-18T03:44:29;97721.47;;;10.50;76.24
47366;BME280;33105;47.964;7.982;2023-02-18T03:47:31;97726.22;;;10.55;76.75
47366;BME280;33105;47.964;7.982;2023-02-18T03:50:33;97728.34;;;10.53;76.79
47366;BME280;33105;47.964;7.982;2023-02-18T03:53:34;97723.38;;;10.50;76.29
47366;BME280;33105;47.964;7.982;2023-02-18T03:56:36;97733.56;;;10.43;76.74
47366;BME280;33105;47.964;7.982;2023-02-18T03:59:37;97737.88;;;10.39;76.90
47366;BME280;33105;47.964;7.982;2023-02-18T04:02:39;97725.97;;;10.45;76.73
47366;BME280;33105;47.964;7.982;2023-02-18T04:05:40;97738.94;;;10.38;77.33
47366;BME280;33105;47.964;7.982;2023-02-18T04:08:42;97740.94;;;10.31;77.25
47366;BME280;33105;47.964;7.982;2023-02-18T04:11:43;97736.66;;;10.35;77.03
47366;BME280;33105;47.964;7.982;2023-02-18T04:14:44;97742.94;;;10.23;77.60
47366;BME280;33105;47.964;7.982;2023-02-18T04:17:46;97742.50;;;10.38;77.28
47366;BME280;33105;47.964;7.982;2023-02-18T04:20:47;97742.72;;;10.25;79.22
47366;BME280;33105;47.964;7.982;2023-02-18T04:23:48;97740.56;;;10.27;79.36
47366;BME280;33105;47.964;7.982;2023-02-18T04:26:50;97731.25;;;10.05;80.75
47366;BME280;33105;47.964;7.982;2023-02-18T04:29:51;97728.38;;;10.00;80.67
47366;BME280;33105;47.964;7.982;2023-02-18T04:32:52;97744.06;;;10.04;81.31
47366;BME280;33105;47.964;7.982;2023-02-18T04:35:53;97743.25;;;10.04;81.22
47366;BME280;33105;47.964;7.982;2023-02-18T04:38:55;97736.34;;;10.01;82.02
47366;BME280;33105;47.964;7.982;2023-02-18T04:41:56;97744.81;;;10.11;81.41
47366;BME280;33105;47.964;7.982;2023-02-18T04:44:57;97732.69;;;10.07;80.31
47366;BME280;33105;47.964;7.982;2023-02-18T04:47:59;97749.41;;;9.99;78.88
47366;BME280;33105;47.964;7.982;2023-02-18T04:51:00;97759.75;;;10.09;78.30
47366;BME280;33105;47.964;7.982;2023-02-18T04:54:02;97747.66;;;10.16;78.90
47366;BME280;33105;47.964;7.982;2023-02-18T04:57:03;97743.09;;;9.99;78.81
47366;BME280;33105;47.964;7.982;2023-02-18T05:00:07;97751.81;;;10.07;78.03
47366;BME280;33105;47.964;7.982;2023-02-18T05:03:09;97745.50;;;10.07;77.41
47366;BME280;33105;47.964;7.982;2023-02-18T05:06:10;97733.31;;;10.21;76.50
47366;BME280;33105;47.964;7.982;2023-02-18T05:09:12;97713.94;;;10.11;75.81
47366;BME280;33105;47.964;7.982;2023-02-18T05:12:14;97718.84;;;10.20;74.59
47366;BME280;33105;47.964;7.982;2023-02-18T05:15:15;97730.94;;;10.25;74.53
47366;BME280;33105;47.964;7.982;2023-02-18T05:18:16;97726.22;;;10.32;74.55
47366;BME280;33105;47.964;7.982;2023-02-18T05:21:17;97731.22;;;10.35;75.18
47366;BME280;33105;47.964;7.982;2023-02-18T05:24:19;97732.38;;;10.27;73.51
47366;BME280;33105;47.964;7.982;2023-02-18T05:27:20;97729.75;;;10.20;74.56
47366;BME280;33105;47.964;7.982;2023-02-18T05:30:21;97732.50;;;10.32;74.34
47366;BME280;33105;47.964;7.982;2023-02-18T05:33:22;97735.94;;;10.28;74.68
47366;BME280;33105;47.964;7.982;2023-02-18T05:36:24;97727.28;;;10.42;74.66
47366;BME280;33105;47.964;7.982;2023-02-18T05:39:25;97730.72;;;10.49;74.13
47366;BME280;33105;47.964;7.982;2023-02-18T05:42:26;97724.78;;;10.41;73.98
47366;BME280;33105;47.964;7.982;2023-02-18T05:45:27;97717.41;;;10.41;73.80
47366;BME280;33105;47.964;7.982;2023-02-18T05:48:29;97707.09;;;10.43;74.29
47366;BME280;33105;47.964;7.982;2023-02-18T05:51:30;97711.31;;;10.16;75.06
47366;BME280;33105;47.964;7.982;2023-02-18T05:54:32;97716.25;;;10.37;74.69
47366;BME280;33105;47.964;7.982;2023-02-18T05:57:33;97710.78;;;10.26;75.14
47366;BME280;33105;47.964;7.982;2023-02-18T06:00:35;97714.81;;;10.23;75.13
47366;BME280;33105;47.964;7.982;2023-02-18T06:03:36;97719.94;;;10.31;75.27
47366;BME280;33105;47.964;7.982;2023-02-18T06:06:37;97715.94;;;10.15;75.89
47366;BME280;33105;47.964;7.982;2023-02-18T06:09:38;97707.44;;;10.23;75.48
47366;BME280;33105;47.964;7.982;2023-02-18T06:12:40;97714.22;;;10.44;74.81
47366;BME280;33105;47.964;7.982;2023-02-18T06:15:41;97704.94;;;10.45;74.92
47366;BME280;33105;47.964;7.982;2023-02-18T06:18:42;97709.56;;;10.21;74.62
47366;BME280;33105;47.964;7.982;2023-02-18T06:21:43;97714.94;;;10.28;75.11
47366;BME280;33105;47.964;7.982;2023-02-18T06:24:45;97700.78;;;10.43;75.60
47366;BME280;33105;47.964;7.982;2023-02-18T06:27:46;97710.78;;;10.26;74.96
47366;BME280;33105;47.964;7.982;2023-02-18T06:30:49;97704.50;;;10.37;75.40
47366;BME280;33105;47.964;7.982;2023-02-18T06:33:50;97706.41;;;10.36;75.16
47366;BME280;33105;47.964;7.982;2023-02-18T06:36:51;97702.81;;;10.47;75.07
47366;BME280;33105;47.964;7.982;2023-02-18T06:39:52;97693.91;;;10.40;74.92
47366;BME280;33105;47.964;7.982;2023-02-18T06:42:54;97697.38;;;10.36;75.16
47366;BME280;33105;47.964;7.982;2023-02-18T06:45:55;97695.56;;;10.53;74.96
47366;BME280;33105;47.964;7.982;2023-02-18T06:48:57;97688.81;;;10.55;74.99
47366;BME280;33105;47.964;7.982;2023-02-18T06:51:58;97684.03;;;10.51;74.71
47366;BME280;33105;47.964;7.982;2023-02-18T06:54:59;97693.19;;;10.56;75.29
47366;BME280;33105;47.964;7.982;2023-02-18T06:58:01;97702.59;;;10.37;75.21
47366;BME280;33105;47.964;7.982;2023-02-18T07:01:02;97694.63;;;10.36;76.82
47366;BME280;33105;47.964;7.982;2023-02-18T07:04:04;97692.72;;;10.48;75.81
47366;BME280;33105;47.964;7.982;2023-02-18T07:07:05;97706.63;;;10.58;76.54
47366;BME280;33105;47.964;7.982;2023-02-18T07:10:07;97705.66;;;10.52;75.61
47366;BME280;33105;47.964;7.982;2023-02-18T07:13:09;97708.88;;;10.38;75.67
47366;BME280;33105;47.964;7.982;2023-02-18T07:16:10;97698.53;;;10.40;75.58
47366;BME280;33105;47.964;7.982;2023-02-18T07:19:11;97707.00;;;10.38;74.63
47366;BME280;33105;47.964;7.982;2023-02-18T07:22:13;97712.78;;;10.53;74.78
47366;BME280;33105;47.964;7.982;2023-02-18T07:25:14;97702.94;;;10.52;74.36
47366;BME280;33105;47.964;7.982;2023-02-18T07:28:15;97707.69;;;10.57;74.44
47366;BME280;33105;47.964;7.982;2023-02-18T07:31:16;97705.44;;;10.54;75.05
47366;BME280;33105;47.964;7.982;2023-02-18T07:34:18;97705.19;;;10.44;75.90
47366;BME280;33105;47.964;7.982;2023-02-18T07:37:19;97712.69;;;10.37;75.76
47366;BME280;33105;47.964;7.982;2023-02-18T07:40:21;97715.53;;;10.53;75.31
47366;BME280;33105;47.964;7.982;2023-02-18T07:43:22;97711.84;;;10.48;75.19
47366;BME280;33105;47.964;7.982;2023-02-18T07:46:23;97710.78;;;10.49;75.07
47366;BME280;33105;47.964;7.982;2023-02-18T07:49:25;97702.19;;;10.69;74.96
47366;BME280;33105;47.964;7.982;2023-02-18T07:52:26;97713.03;;;10.52;75.29
47366;BME280;33105;47.964;7.982;2023-02-18T07:55:27;97712.69;;;10.60;75.05
47366;BME280;33105;47.964;7.982;2023-02-18T07:58:48;97714.22;;;10.56;74.04
47366;BME280;33105;47.964;7.982;2023-02-18T08:01:50;97715.28;;;10.78;72.54
47366;BME280;33105;47.964;7.982;2023-02-18T08:04:51;97715.03;;;10.68;73.58
47366;BME280;33105;47.964;7.982;2023-02-18T08:07:52;97715.03;;;10.80;72.38
47366;BME280;33105;47.964;7.982;2023-02-18T08:10:56;97710.13;;;10.94;72.09
47366;BME280;33105;47.964;7.982;2023-02-18T08:13:57;97707.53;;;10.87;72.85
47366;BME280;33105;47.964;7.982;2023-02-18T08:16:59;97714.44;;;10.78;72.48
47366;BME280;33105;47.964;7.982;2023-02-18T08:20:00;97711.09;;;10.87;73.28
47366;BME280;33105;47.964;7.982;2023-02-18T08:23:01;97714.56;;;10.71;73.52
47366;BME280;33105;47.964;7.982;2023-02-18T08:26:02;97708.50;;;10.69;73.98
47366;BME280;33105;47.964;7.982;2023-02-18T08:29:04;97705.03;;;10.85;73.36
47366;BME280;33105;47.964;7.982;2023-02-18T08:32:05;97717.97;;;11.02;72.94
47366;BME280;33105;47.964;7.982;2023-02-18T08:35:06;97704.81;;;10.75;73.87
47366;BME280;33105;47.964;7.982;2023-02-18T08:38:08;97708.69;;;10.91;73.19
47366;BME280;33105;47.964;7.982;2023-02-18T08:41:09;97708.22;;;10.94;73.38
47366;BME280;33105;47.964;7.982;2023-02-18T08:44:12;97702.63;;;10.89;73.18
47366;BME280;33105;47.964;7.982;2023-02-18T08:47:13;97715.03;;;10.68;74.51
47366;BME280;33105;47.964;7.982;2023-02-18T08:50:14;97716.19;;;10.96;73.68
47366;BME280;33105;47.964;7.982;2023-02-18T08:53:16;97707.44;;;10.82;74.35
47366;BME280;33105;47.964;7.982;2023-02-18T08:56:17;97713.72;;;10.82;74.34
47366;BME280;33105;47.964;7.982;2023-02-18T08:59:19;97715.25;;;10.67;74.70
47366;BME280;33105;47.964;7.982;2023-02-18T09:02:20;97717.16;;;10.78;74.40
47366;BME280;33105;47.964;7.982;2023-02-18T09:05:21;97721.56;;;10.44;74.94
47366;BME280;33105;47.964;7.982;2023-02-18T09:08:22;97703.53;;;10.54;75.48
47366;BME280;33105;47.964;7.982;2023-02-18T09:11:23;97724.91;;;10.69;74.28
47366;BME280;33105;47.964;7.982;2023-02-18T09:14:25;97722.78;;;10.60;74.25
47366;BME280;33105;47.964;7.982;2023-02-18T09:17:27;97727.16;;;10.49;75.78
47366;BME280;33105;47.964;7.982;2023-02-18T09:20:29;97716.56;;;10.76;74.49
47366;BME280;33105;47.964;7.982;2023-02-18T09:23:31;97712.66;;;10.83;74.91
47366;BME280;33105;47.964;7.982;2023-02-18T09:26:32;97724.56;;;10.54;76.04
47366;BME280;33105;47.964;7.982;2023-02-18T09:29:37;97718.81;;;10.67;75.21
47366;BME280;33105;47.964;7.982;2023-02-18T09:32:39;97723.84;;;10.47;75.56
47366;BME280;33105;47.964;7.982;2023-02-18T09:35:41;97722.41;;;10.68;74.88
47366;BME280;33105;47.964;7.982;2023-02-18T09:38:43;97727.28;;;10.54;75.37
47366;BME280;33105;47.964;7.982;2023-02-18T09:41:47;97728.13;;;10.54;75.62
47366;BME280;33105;47.964;7.982;2023-02-18T09:44:51;97723.38;;;10.50;75.01
47366;BME280;33105;47.964;7.982;2023-02-18T09:47:54;97735.34;;;10.49;75.80
47366;BME280;33105;47.964;7.982;2023-02-18T09:50:55;97735.22;;;10.44;75.47
47366;BME280;33105;47.964;7.982;2023-02-18T09:53:57;97722.16;;;10.46;76.55
47366;BME280;33105;47.964;7.982;2023-02-18T09:56:59;97715.19;;;10.62;74.96
47366;BME280;33105;47.964;7.982;2023-02-18T10:00:14;97722.91;;;10.53;74.77
47366;BME280;33105;47.964;7.982;2023-02-18T10:03:20;97711.69;;;10.66;74.33
47366;BME280;33105;47.964;7.982;2023-02-18T10:06:25;97716.72;;;10.57;74.40
47366;BME280;33105;47.964;7.982;2023-02-18T10:09:37;97708.25;;;10.71;73.69
47366;BME280;33105;47.964;7.982;2023-02-18T10:12:38;97706.72;;;10.86;74.40
47366;BME280;33105;47.964;7.982;2023-02-18T10:15:42;97710.59;;;11.02;74.53
47366;BME280;33105;47.964;7.982;2023-02-18T10:18:48;97714.50;;;11.06;75.13
47366;BME280;33105;47.964;7.982;2023-02-18T10:21:51;97706.78;;;11.03;72.39
47366;BME280;33105;47.964;7.982;2023-02-18T10:24:56;97699.34;;;11.15;72.66
47366;BME280;33105;47.964;7.982;2023-02-18T10:27:59;97697.13;;;11.41;71.12
47366;BME280;33105;47.964;7.982;2023-02-18T10:31:09;97696.00;;;11.53;70.73
47366;BME280;33105;47.964;7.982;2023-02-18T10:41:11;97689.91;;;12.08;67.62
47366;BME280;33105;47.964;7.982;2023-02-18T10:43:52;97674.78;;;12.22;68.96
47366;BME280;33105;47.964;7.982;2023-02-18T10:50:39;97664.50;;;11.68;66.95
47366;BME280;33105;47.964;7.982;2023-02-18T10:53:42;97668.91;;;11.69;68.28
47366;BME280;33105;47.964;7.982;2023-02-18T10:56:50;97662.75;;;11.90;67.82
47366;BME280;33105;47.964;7.982;2023-02-18T11:03:16;97647.22;;;11.79;68.16
47366;BME280;33105;47.964;7.982;2023-02-18T11:06:31;97651.28;;;11.93;69.63
47366;BME280;33105;47.964;7.982;2023-02-18T11:09:40;97647.66;;;11.87;66.93
47366;BME280;33105;47.964;7.982;2023-02-18T11:12:50;97642.13;;;12.38;67.00
47366;BME280;33105;47.964;7.982;2023-02-18T11:16:04;97636.59;;;12.33;65.75
47366;BME280;33105;47.964;7.982;2023-02-18T11:19:41;97651.28;;;11.93;65.70
47366;BME280;33105;47.964;7.982;2023-02-18T11:22:42;97645.72;;;12.21;65.06
47366;BME280;33105;47.964;7.982;2023-02-18T11:26:04;97639.81;;;12.13;63.36
47366;BME280;33105;47.964;7.982;2023-02-18T11:32:17;97634.22;;;12.41;64.37
47366;BME280;33105;47.964;7.982;2023-02-18T11:35:21;97637.88;;;12.47;63.61
47366;BME280;33105;47.964;7.982;2023-02-18T11:38:46;97636.59;;;12.16;64.07
47366;BME280;33105;47.964;7.982;2023-02-18T11:44:57;97619.19;;;12.44;63.30
47366;BME280;33105;47.964;7.982;2023-02-18T11:51:25;97610.28;;;12.32;63.40
47366;BME280;33105;47.964;7.982;2023-02-18T11:54:28;97619.00;;;12.29;64.98
47366;BME280;33105;47.964;7.982;2023-02-18T11:57:33;97619.69;;;12.41;64.77
47366;BME280;33105;47.964;7.982;2023-02-18T12:00:39;97602.19;;;12.42;63.31
47366;BME280;33105;47.964;7.982;2023-02-18T12:03:51;97611.50;;;12.63;62.14
47366;BME280;33105;47.964;7.982;2023-02-18T12:10:42;97589.53;;;12.19;63.73
47366;BME280;33105;47.964;7.982;2023-02-18T12:13:56;97589.16;;;12.10;64.36
47366;BME280;33105;47.964;7.982;2023-02-18T12:23:53;97575.84;;;12.41;63.17
47366;BME280;33105;47.964;7.982;2023-02-18T12:27:17;97590.53;;;12.73;62.88
47366;BME280;33105;47.964;7.982;2023-02-18T12:40:35;97562.56;;;13.20;62.39
47366;BME280;33105;47.964;7.982;2023-02-18T12:51:05;97568.66;;;12.78;62.93
47366;BME280;33105;47.964;7.982;2023-02-18T13:04:02;97572.22;;;13.54;62.90
47366;BME280;33105;47.964;7.982;2023-02-18T13:14:22;97557.50;;;13.34;60.75
47366;BME280;33105;47.964;7.982;2023-02-18T13:17:28;97567.50;;;12.96;61.94
47366;BME280;33105;47.964;7.982;2023-02-18T13:20:48;97549.47;;;13.27;61.45
47366;BME280;33105;47.964;7.982;2023-02-18T13:24:08;97571.22;;;12.85;62.68
47366;BME280;33105;47.964;7.982;2023-02-18T13:31:24;97553.09;;;12.40;64.26
47366;BME280;33105;47.964;7.982;2023-02-18T13:34:58;97549.28;;;12.41;64.04
47366;BME280;33105;47.964;7.982;2023-02-18T13:41:16;97540.94;;;12.31;62.62
47366;BME280;33105;47.964;7.982;2023-02-18T13:50:41;97529.25;;;12.63;63.07
47366;BME280;33105;47.964;7.982;2023-02-18T13:53:49;97526.81;;;12.61;63.02
47366;BME280;33105;47.964;7.982;2023-02-18T14:00:02;97522.41;;;12.60;63.13
47366;BME280;33105;47.964;7.982;2023-02-18T14:03:33;97525.91;;;12.55;64.24
47366;BME280;33105;47.964;7.982;2023-02-18T14:13:21;97507.78;;;13.03;62.95
47366;BME280;33105;47.964;7.982;2023-02-18T14:16:23;97499.75;;;12.97;61.39
47366;BME280;33105;47.964;7.982;2023-02-18T14:19:28;97499.91;;;12.58;62.36
47366;BME280;33105;47.964;7.982;2023-02-18T14:25:35;97506.75;;;12.82;61.69
47366;BME280;33105;47.964;7.982;2023-02-18T14:28:43;97491.53;;;12.97;62.37
47366;BME280;33105;47.964;7.982;2023-02-18T14:31:48;97504.34;;;12.64;62.55
47366;BME280;33105;47.964;7.982;2023-02-18T14:35:36;97503.38;;;12.75;61.17
47366;BME280;33105;47.964;7.982;2023-02-18T14:52:01;97494.16;;;12.38;63.40
47366;BME280;33105;47.964;7.982;2023-02-18T14:55:06;97491.88;;;12.30;63.71
47366;BME280;33105;47.964;7.982;2023-02-18T14:58:27;97487.47;;;12.29;62.62
47366;BME280;33105;47.964;7.982;2023-02-18T15:01:32;97487.22;;;12.30;63.17
47366;BME280;33105;47.964;7.982;2023-02-18T15:04:34;97481.66;;;12.47;63.18
47366;BME280;33105;47.964;7.982;2023-02-18T15:07:36;97485.31;;;12.09;63.56
47366;BME280;33105;47.964;7.982;2023-02-18T15:10:50;97490.47;;;12.27;63.13
47366;BME280;33105;47.964;7.982;2023-02-18T15:13:52;97497.34;;;12.30;63.71
47366;BME280;33105;47.964;7.982;2023-02-18T15:16:54;97502.34;;;12.33;63.58
47366;BME280;33105;47.964;7.982;2023-02-18T15:19:58;97489.13;;;12.08;63.53
47366;BME280;33105;47.964;7.982;2023-02-18T15:23:00;97486.06;;;12.04;62.94
47366;BME280;33105;47.964;7.982;2023-02-18T15:26:02;97482.56;;;11.87;64.32
47366;BME280;33105;47.964;7.982;2023-02-18T15:29:04;97483.44;;;12.14;63.10
47366;BME280;33105;47.964;7.982;2023-02-18T15:32:15;97483.56;;;11.81;64.53
47366;BME280;33105;47.964;7.982;2023-02-18T15:35:18;97473.81;;;11.90;64.32
47366;BME280;33105;47.964;7.982;2023-02-18T15:38:20;97480.72;;;11.76;64.79
47366;BME280;33105;47.964;7.982;2023-02-18T15:41:21;97473.56;;;11.91;64.11
47366;BME280;33105;47.964;7.982;2023-02-18T15:44:26;97468.72;;;11.77;64.84
47366;BME280;33105;47.964;7.982;2023-02-18T15:47:27;97464.13;;;11.66;64.19
47366;BME280;33105;47.964;7.982;2023-02-18T15:50:32;97466.56;;;11.79;64.06
47366;BME280;33105;47.964;7.982;2023-02-18T15:53:37;97464.78;;;11.73;64.21
47366;BME280;33105;47.964;7.982;2023-02-18T15:56:41;97468.72;;;11.77;63.74
47366;BME280;33105;47.964;7.982;2023-02-18T15:59:46;97462.09;;;11.95;63.45
47366;BME280;33105;47.964;7.982;2023-02-18T16:02:56;97466.44;;;11.90;64.33
47366;BME280;33105;47.964;7.982;2023-02-18T16:06:33;97466.72;;;11.55;63.79
47366;BME280;33105;47.964;7.982;2023-02-18T16:09:32;97465.97;;;11.77;64.56
47366;BME280;33105;47.964;7.982;2023-02-18T16:12:36;97459.69;;;11.43;64.90
47366;BME280;33105;47.964;7.982;2023-02-18T16:15:40;97462.34;;;11.54;64.19
47366;BME280;33105;47.964;7.982;2023-02-18T16:18:43;97453.72;;;11.63;64.21
47366;BME280;33105;47.964;7.982;2023-02-18T16:21:44;97450.88;;;11.57;65.18
47366;BME280;33105;47.964;7.982;2023-02-18T16:24:48;97456.56;;;11.34;64.58
47366;BME280;33105;47.964;7.982;2023-02-18T16:30:58;97444.78;;;11.34;64.69
47366;BME280;33105;47.964;7.982;2023-02-18T16:33:59;97444.78;;;11.34;64.96
47366;BME280;33105;47.964;7.982;2023-02-18T16:37:01;97437.16;;;11.19;64.90
47366;BME280;33105;47.964;7.982;2023-02-18T16:43:24;97440.47;;;11.21;63.93
47366;BME280;33105;47.964;7.982;2023-02-18T16:46:27;97443.69;;;11.01;64.47
47366;BME280;33105;47.964;7.982;2023-02-18T16:49:30;97444.28;;;11.03;65.24
47366;BME280;33105;47.964;7.982;2023-02-18T16:52:31;97453.81;;;11.01;65.38
47366;BME280;33105;47.964;7.982;2023-02-18T16:55:32;97452.50;;;11.03;65.11
47366;BME280;33105;47.964;7.982;2023-02-18T16:58:34;97447.09;;;10.91;65.62
47366;BME280;33105;47.964;7.982;2023-02-18T17:01:37;97456.69;;;10.94;65.86
47366;BME280;33105;47.964;7.982;2023-02-18T17:04:41;97451.31;;;10.82;66.25
47366;BME280;33105;47.964;7.982;2023-02-18T17:07:42;97448.00;;;11.14;65.72
47366;BME280;33105;47.964;7.982;2023-02-18T17:10:48;97456.06;;;10.87;65.67
47366;BME280;33105;47.964;7.982;2023-02-18T17:13:50;97463.81;;;10.95;65.63
47366;BME280;33105;47.964;7.982;2023-02-18T17:16:53;97469.88;;;10.97;65.93
47366;BME280;33105;47.964;7.982;2023-02-18T17:19:54;97462.75;;;10.79;65.59
47366;BME280;33105;47.964;7.982;2023-02-18T17:22:55;97464.88;;;10.77;65.93
47366;BME280;33105;47.964;7.982;2023-02-18T17:25:57;97470.78;;;10.86;66.04
47366;BME280;33105;47.964;7.982;2023-02-18T17:28:58;97472.44;;;10.87;66.15
47366;BME280;33105;47.964;7.982;2023-02-18T17:32:05;97478.31;;;10.79;65.90
47366;BME280;33105;47.964;7.982;2023-02-18T17:35:17;97480.78;;;10.64;66.58
47366;BME280;33105;47.964;7.982;2023-02-18T17:38:18;97489.47;;;10.49;67.54
47366;BME280;33105;47.964;7.982;2023-02-18T17:41:20;97491.16;;;10.78;67.15
47366;BME280;33105;47.964;7.982;2023-02-18T17:44:22;97486.75;;;10.49;67.65
47366;BME280;33105;47.964;7.982;2023-02-18T17:47:24;97495.16;;;10.59;67.68
47366;BME280;33105;47.964;7.982;2023-02-18T17:50:27;97491.16;;;10.78;66.41
47366;BME280;33105;47.964;7.982;2023-02-18T17:53:28;97503.69;;;10.63;66.88
47366;BME280;33105;47.964;7.982;2023-02-18T17:56:30;97493.19;;;10.71;67.16
47366;BME280;33105;47.964;7.982;2023-02-18T17:59:31;97491.34;;;10.88;66.60
47366;BME280;33105;47.964;7.982;2023-02-18T18:02:32;97503.91;;;10.89;66.79
47366;BME280;33105;47.964;7.982;2023-02-18T18:05:36;97495.09;;;10.71;67.21
47366;BME280;33105;47.964;7.982;2023-02-18T18:08:38;97497.59;;;10.72;67.05
47366;BME280;33105;47.964;7.982;2023-02-18T18:11:39;97492.56;;;10.52;67.76
47366;BME280;33105;47.964;7.982;2023-02-18T18:14:40;97501.22;;;10.61;67.52
47366;BME280;33105;47.964;7.982;2023-02-18T18:17:41;97498.28;;;10.51;68.02
47366;BME280;33105;47.964;7.982;2023-02-18T18:20:49;97494.84;;;10.44;68.62
47366;BME280;33105;47.964;7.982;2023-02-18T18:23:50;97506.72;;;10.49;68.49
47366;BME280;33105;47.964;7.982;2023-02-18T18:26:52;97504.00;;;10.66;67.63
47366;BME280;33105;47.964;7.982;2023-02-18T18:29:53;97497.41;;;10.62;68.48
47366;BME280;33105;47.964;7.982;2023-02-18T18:32:55;97499.91;;;10.64;68.71
47366;BME280;33105;47.964;7.982;2023-02-18T18:35:57;97496.41;;;10.68;68.77
47366;BME280;33105;47.964;7.982;2023-02-18T18:38:59;97499.34;;;10.50;68.93
47366;BME280;33105;47.964;7.982;2023-02-18T18:42:00;97489.31;;;10.39;69.12
47366;BME280;33105;47.964;7.982;2023-02-18T18:45:02;97503.63;;;10.46;69.41
47366;BME280;33105;47.964;7.982;2023-02-18T18:48:05;97491.38;;;10.48;69.17